sensor_id;sensor_type;location;lat;lon;timestamp;pressure;altitude;pressure_sealevel;temperature;humidity
64551;BME280;50945;44.472;-123.352;2023-04-08T00:01:04;100131.19;;;10.98;69.64
64551;BME280;50945;44.472;-123.352;2023-04-08T00:03:31;100123.38;;;10.80;67.97
64551;BME280;50945;44.472;-123.352;2023-04-08T00:06:00;100139.91;;;10.72;69.53
64551;BME280;50945;44.472;-123.352;2023-04-08T00:08:27;100126.59;;;10.69;70.67
64551;BME280;50945;44.472;-123.352;2023-04-08T00:10:54;100120.66;;;10.65;69.79
64551;BME280;50945;44.472;-123.352;2023-04-08T00:13:20;100124.91;;;10.68;71.14
64551;BME280;50945;44.472;-123.352;2023-04-08T00:15:46;100121.59;;;10.72;71.27
64551;BME280;50945;44.472;-123.352;2023-04-08T00:18:16;100128.38;;;10.76;71.64
64551;BME280;50945;44.472;-123.352;2023-04-08T00:20:42;100135.81;;;10.82;71.64
64551;BME280;50945;44.472;-123.352;2023-04-08T00:23:09;100129.09;;;10.85;71.50
64551;BME280;50945;44.472;-123.352;2023-04-08T00:25:35;100133.38;;;10.88;71.78
64551;BME280;50945;44.472;-123.352;2023-04-08T00:28:01;100139.22;;;10.84;71.53
64551;BME280;50945;44.472;-123.352;2023-04-08T00:30:28;100142.50;;;10.80;72.20
64551;BME280;50945;44.472;-123.352;2023-04-08T00:32:54;100134.31;;;10.80;72.57
64551;BME280;50945;44.472;-123.352;2023-04-08T00:35:21;100135.81;;;10.82;72.48
64551;BME280;50945;44.472;-123.352;2023-04-08T00:37:47;100142.97;;;10.83;73.10
64551;BME280;50945;44.472;-123.352;2023-04-08T00:40:14;100140.22;;;10.83;73.30
64551;BME280;50945;44.472;-123.352;2023-04-08T00:42:40;100139.59;;;10.81;73.12
64551;BME280;50945;44.472;-123.352;2023-04-08T00:45:07;100140.00;;;10.78;73.33
64551;BME280;50945;44.472;-123.352;2023-04-08T00:47:34;100143.28;;;10.74;69.81
64551;BME280;50945;44.472;-123.352;2023-04-08T00:50:01;100148.47;;;10.69;73.16
64551;BME280;50945;44.472;-123.352;2023-04-08T00:52:28;100150.75;;;10.65;73.29
64551;BME280;50945;44.472;-123.352;2023-04-08T00:54:55;100145.84;;;10.60;73.84
64551;BME280;50945;44.472;-123.352;2023-04-08T00:57:20;100163.00;;;10.54;72.02
64551;BME280;50945;44.472;-123.352;2023-04-08T00:59:48;100164.16;;;10.45;72.76
64551;BME280;50945;44.472;-123.352;2023-04-08T01:02:35;100164.81;;;10.32;70.20
64551;BME280;50945;44.472;-123.352;2023-04-08T01:05:05;100162.97;;;10.24;73.24
64551;BME280;50945;44.472;-123.352;2023-04-08T01:07:34;100154.66;;;10.18;73.40
64551;BME280;50945;44.472;-123.352;2023-04-08T01:15:21;100169.81;;;10.05;73.61
64551;BME280;50945;44.472;-123.352;2023-04-08T01:17:49;100175.25;;;10.05;74.06
64551;BME280;50945;44.472;-123.352;2023-04-08T01:20:21;100170.19;;;10.02;73.99
64551;BME280;50945;44.472;-123.352;2023-04-08T01:25:36;100193.06;;;10.01;74.18
64551;BME280;50945;44.472;-123.352;2023-04-08T01:28:10;100193.06;;;10.01;74.29
64551;BME280;50945;44.472;-123.352;2023-04-08T01:30:39;100191.94;;;9.96;74.70
64551;BME280;50945;44.472;-123.352;2023-04-08T01:33:06;100196.91;;;9.92;74.34
64551;BME280;50945;44.472;-123.352;2023-04-08T01:35:34;100209.72;;;9.92;75.44
64551;BME280;50945;44.472;-123.352;2023-04-08T01:38:02;100211.41;;;9.93;74.04
64551;BME280;50945;44.472;-123.352;2023-04-08T01:40:33;100208.38;;;9.87;74.58
64551;BME280;50945;44.472;-123.352;2023-04-08T01:43:01;100208.94;;;9.83;74.95
64551;BME280;50945;44.472;-123.352;2023-04-08T01:45:29;100211.00;;;9.81;74.75
64551;BME280;50945;44.472;-123.352;2023-04-08T01:47:57;100221.06;;;9.80;74.80
64551;BME280;50945;44.472;-123.352;2023-04-08T01:50:26;100224.19;;;9.77;75.16
64551;BME280;50945;44.472;-123.352;2023-04-08T01:52:54;100228.28;;;9.73;74.50
64551;BME280;50945;44.472;-123.352;2023-04-08T01:55:22;100228.53;;;9.63;75.43
64551;BME280;50945;44.472;-123.352;2023-04-08T01:57:51;100224.66;;;9.58;74.93
64551;BME280;50945;44.472;-123.352;2023-04-08T02:00:21;100229.63;;;9.54;75.15
64551;BME280;50945;44.472;-123.352;2023-04-08T02:02:50;100230.66;;;9.53;75.42
64551;BME280;50945;44.472;-123.352;2023-04-08T02:05:16;100229.34;;;9.49;75.01
64551;BME280;50945;44.472;-123.352;2023-04-08T02:07:42;100243.50;;;9.44;76.05
64551;BME280;50945;44.472;-123.352;2023-04-08T02:10:11;100236.53;;;9.42;76.24
64551;BME280;50945;44.472;-123.352;2023-04-08T02:12:37;100237.91;;;9.38;76.50
64551;BME280;50945;44.472;-123.352;2023-04-08T02:15:04;100239.78;;;9.37;76.16
64551;BME280;50945;44.472;-123.352;2023-04-08T02:17:38;100246.47;;;9.35;76.43
64551;BME280;50945;44.472;-123.352;2023-04-08T02:20:09;100248.22;;;9.27;76.25
64551;BME280;50945;44.472;-123.352;2023-04-08T02:25:21;100259.34;;;9.18;76.90
64551;BME280;50945;44.472;-123.352;2023-04-08T02:27:49;100249.81;;;9.13;77.61
64551;BME280;50945;44.472;-123.352;2023-04-08T02:30:17;100265.69;;;9.10;77.64
64551;BME280;50945;44.472;-123.352;2023-04-08T02:32:46;100262.31;;;9.00;76.97
64551;BME280;50945;44.472;-123.352;2023-04-08T02:35:14;100262.16;;;8.93;77.44
64551;BME280;50945;44.472;-123.352;2023-04-08T02:37:41;100257.44;;;8.87;77.50
64551;BME280;50945;44.472;-123.352;2023-04-08T02:40:31;100251.66;;;8.82;76.57
64551;BME280;50945;44.472;-123.352;2023-04-08T02:42:58;100268.19;;;8.72;77.52
64551;BME280;50945;44.472;-123.352;2023-04-08T02:45:30;100269.75;;;8.66;77.53
64551;BME280;50945;44.472;-123.352;2023-04-08T02:47:59;100255.13;;;8.59;78.04
64551;BME280;50945;44.472;-123.352;2023-04-08T02:50:26;100265.19;;;8.59;77.85
64551;BME280;50945;44.472;-123.352;2023-04-08T02:52:52;100265.53;;;8.55;77.81
64551;BME280;50945;44.472;-123.352;2023-04-08T02:55:18;100273.53;;;8.49;77.73
64551;BME280;50945;44.472;-123.352;2023-04-08T02:57:47;100289.00;;;8.40;77.29
64551;BME280;50945;44.472;-123.352;2023-04-08T03:00:14;100285.97;;;8.35;78.00
64551;BME280;50945;44.472;-123.352;2023-04-08T03:02:40;100290.22;;;8.29;77.84
64551;BME280;50945;44.472;-123.352;2023-04-08T03:05:07;100290.91;;;8.23;77.70
64551;BME280;50945;44.472;-123.352;2023-04-08T03:07:34;100296.69;;;8.20;77.96
64551;BME280;50945;44.472;-123.352;2023-04-08T03:10:01;100299.06;;;8.15;78.18
64551;BME280;50945;44.472;-123.352;2023-04-08T03:12:27;100298.56;;;8.11;77.93
64551;BME280;50945;44.472;-123.352;2023-04-08T03:14:54;100298.22;;;8.06;78.19
64551;BME280;50945;44.472;-123.352;2023-04-08T03:17:20;100297.19;;;7.99;78.50
64551;BME280;50945;44.472;-123.352;2023-04-08T03:19:47;100302.13;;;7.95;78.62
64551;BME280;50945;44.472;-123.352;2023-04-08T03:22:13;100297.03;;;7.92;79.01
64551;BME280;50945;44.472;-123.352;2023-04-08T03:24:39;100307.06;;;7.92;79.42
64551;BME280;50945;44.472;-123.352;2023-04-08T03:27:06;100316.25;;;7.91;79.28
64551;BME280;50945;44.472;-123.352;2023-04-08T03:29:33;100320.47;;;7.85;79.52
64551;BME280;50945;44.472;-123.352;2023-04-08T03:31:59;100321.69;;;7.83;79.55
64551;BME280;50945;44.472;-123.352;2023-04-08T03:34:25;100326.44;;;7.80;79.77
64551;BME280;50945;44.472;-123.352;2023-04-08T03:36:51;100322.16;;;7.78;80.06
64551;BME280;50945;44.472;-123.352;2023-04-08T03:39:18;100325.25;;;7.75;79.65
64551;BME280;50945;44.472;-123.352;2023-04-08T03:41:44;100335.63;;;7.71;79.79
64551;BME280;50945;44.472;-123.352;2023-04-08T03:44:11;100331.50;;;7.67;80.51
64551;BME280;50945;44.472;-123.352;2023-04-08T03:46:37;100339.31;;;7.62;80.40
64551;BME280;50945;44.472;-123.352;2023-04-08T03:49:06;100329.94;;;7.56;80.67
64551;BME280;50945;44.472;-123.352;2023-04-08T03:51:32;100328.59;;;7.52;80.42
64551;BME280;50945;44.472;-123.352;2023-04-08T03:53:59;100340.31;;;7.53;80.81
64551;BME280;50945;44.472;-123.352;2023-04-08T03:56:25;100345.22;;;7.49;80.75
64551;BME280;50945;44.472;-123.352;2023-04-08T03:58:51;100340.84;;;7.48;80.70
64551;BME280;50945;44.472;-123.352;2023-04-08T04:01:20;100346.28;;;7.48;80.53
64551;BME280;50945;44.472;-123.352;2023-04-08T04:03:47;100346.44;;;7.47;79.89
64551;BME280;50945;44.472;-123.352;2023-04-08T04:06:13;100346.28;;;7.48;79.77
64551;BME280;50945;44.472;-123.352;2023-04-08T04:08:39;100349.16;;;7.47;80.21
64551;BME280;50945;44.472;-123.352;2023-04-08T04:11:05;100352.03;;;7.45;79.74
64551;BME280;50945;44.472;-123.352;2023-04-08T04:13:32;100347.44;;;7.46;80.40
64551;BME280;50945;44.472;-123.352;2023-04-08T04:15:58;100353.75;;;7.46;80.16
64551;BME280;50945;44.472;-123.352;2023-04-08T04:18:25;100366.47;;;7.46;79.89
64551;BME280;50945;44.472;-123.352;2023-04-08T04:20:51;100366.31;;;7.47;80.14
64551;BME280;50945;44.472;-123.352;2023-04-08T04:23:17;100355.59;;;7.46;80.32
64551;BME280;50945;44.472;-123.352;2023-04-08T04:25:47;100357.47;;;7.45;79.95
64551;BME280;50945;44.472;-123.352;2023-04-08T04:28:13;100353.03;;;7.44;80.18
64551;BME280;50945;44.472;-123.352;2023-04-08T04:30:39;100357.63;;;7.43;80.52
64551;BME280;50945;44.472;-123.352;2023-04-08T04:33:06;100365.09;;;7.41;80.43
64551;BME280;50945;44.472;-123.352;2023-04-08T04:35:33;100369.88;;;7.39;80.36
64551;BME280;50945;44.472;-123.352;2023-04-08T04:38:00;100363.53;;;7.39;80.47
64551;BME280;50945;44.472;-123.352;2023-04-08T04:40:27;100371.56;;;7.40;80.24
64551;BME280;50945;44.472;-123.352;2023-04-08T04:42:53;100374.09;;;7.42;80.14
64551;BME280;50945;44.472;-123.352;2023-04-08T04:45:19;100384.66;;;7.45;79.91
64551;BME280;50945;44.472;-123.352;2023-04-08T04:47:45;100382.47;;;7.49;80.23
64551;BME280;50945;44.472;-123.352;2023-04-08T04:50:11;100378.03;;;7.48;79.87
64551;BME280;50945;44.472;-123.352;2023-04-08T04:52:38;100386.38;;;7.46;80.15
64551;BME280;50945;44.472;-123.352;2023-04-08T04:55:04;100385.84;;;7.42;80.03
64551;BME280;50945;44.472;-123.352;2023-04-08T04:57:32;100379.72;;;7.40;79.83
64551;BME280;50945;44.472;-123.352;2023-04-08T05:00:02;100370.03;;;7.38;80.07
64551;BME280;50945;44.472;-123.352;2023-04-08T05:02:28;100374.78;;;7.36;80.21
64551;BME280;50945;44.472;-123.352;2023-04-08T05:04:54;100377.81;;;7.33;80.48
64551;BME280;50945;44.472;-123.352;2023-04-08T05:07:23;100378.13;;;7.30;80.06
64551;BME280;50945;44.472;-123.352;2023-04-08T05:09:50;100379.31;;;7.27;80.27
64551;BME280;50945;44.472;-123.352;2023-04-08T05:12:17;100371.31;;;7.26;80.17
64551;BME280;50945;44.472;-123.352;2023-04-08T05:14:45;100371.66;;;7.22;79.97
64551;BME280;50945;44.472;-123.352;2023-04-08T05:17:12;100382.38;;;7.24;79.87
64551;BME280;50945;44.472;-123.352;2023-04-08T05:19:38;100385.25;;;7.22;80.11
64551;BME280;50945;44.472;-123.352;2023-04-08T05:22:04;100392.25;;;7.25;80.29
64551;BME280;50945;44.472;-123.352;2023-04-08T05:24:32;100396.66;;;7.26;80.41
64551;BME280;50945;44.472;-123.352;2023-04-08T05:26:58;100392.25;;;7.25;80.53
64551;BME280;50945;44.472;-123.352;2023-04-08T05:29:24;100392.56;;;7.22;80.71
64551;BME280;50945;44.472;-123.352;2023-04-08T05:31:50;100398.00;;;7.22;80.57
64551;BME280;50945;44.472;-123.352;2023-04-08T05:34:17;100388.84;;;7.23;80.46
64551;BME280;50945;44.472;-123.352;2023-04-08T05:36:50;100400.41;;;7.25;80.25
64551;BME280;50945;44.472;-123.352;2023-04-08T05:39:17;100398.69;;;7.24;80.61
64551;BME280;50945;44.472;-123.352;2023-04-08T05:41:44;100396.28;;;7.21;81.12
64551;BME280;50945;44.472;-123.352;2023-04-08T05:44:11;100384.88;;;7.17;82.21
64551;BME280;50945;44.472;-123.352;2023-04-08T05:46:37;100395.06;;;7.15;81.66
64551;BME280;50945;44.472;-123.352;2023-04-08T05:49:03;100401.34;;;7.16;81.04
64551;BME280;50945;44.472;-123.352;2023-04-08T05:51:30;100392.34;;;7.15;81.06
64551;BME280;50945;44.472;-123.352;2023-04-08T05:53:58;100396.78;;;7.16;81.54
64551;BME280;50945;44.472;-123.352;2023-04-08T05:56:24;100388.47;;;7.18;81.53
64551;BME280;50945;44.472;-123.352;2023-04-08T05:58:50;100383.88;;;7.18;81.32
64551;BME280;50945;44.472;-123.352;2023-04-08T06:01:16;100395.75;;;7.17;81.90
64551;BME280;50945;44.472;-123.352;2023-04-08T06:03:42;100393.03;;;7.17;82.11
64551;BME280;50945;44.472;-123.352;2023-04-08T06:06:09;100380.63;;;7.15;82.28
64551;BME280;50945;44.472;-123.352;2023-04-08T06:08:36;100388.78;;;7.15;82.11
64551;BME280;50945;44.472;-123.352;2023-04-08T06:11:02;100391.66;;;7.13;81.69
64551;BME280;50945;44.472;-123.352;2023-04-08T06:13:30;100389.09;;;7.12;81.68
64551;BME280;50945;44.472;-123.352;2023-04-08T06:15:56;100381.09;;;7.10;81.62
64551;BME280;50945;44.472;-123.352;2023-04-08T06:18:23;100384.69;;;7.11;81.56
64551;BME280;50945;44.472;-123.352;2023-04-08T06:20:49;100381.09;;;7.10;81.59
64551;BME280;50945;44.472;-123.352;2023-04-08T06:23:15;100387.72;;;7.08;81.76
64551;BME280;50945;44.472;-123.352;2023-04-08T06:25:42;100386.00;;;7.07;82.06
64551;BME280;50945;44.472;-123.352;2023-04-08T06:28:09;100392.47;;;7.06;82.44
64551;BME280;50945;44.472;-123.352;2023-04-08T06:30:35;100384.31;;;7.06;81.99
64551;BME280;50945;44.472;-123.352;2023-04-08T06:33:01;100382.59;;;7.04;82.55
64551;BME280;50945;44.472;-123.352;2023-04-08T06:35:27;100387.19;;;7.04;82.46
64551;BME280;50945;44.472;-123.352;2023-04-08T06:37:54;100389.06;;;7.03;82.65
64551;BME280;50945;44.472;-123.352;2023-04-08T06:40:20;100393.47;;;7.04;82.57
64551;BME280;50945;44.472;-123.352;2023-04-08T06:42:46;100391.59;;;7.05;83.02
64551;BME280;50945;44.472;-123.352;2023-04-08T06:45:13;100389.91;;;7.04;82.88
64551;BME280;50945;44.472;-123.352;2023-04-08T06:47:39;100396.19;;;7.04;83.12
64551;BME280;50945;44.472;-123.352;2023-04-08T06:50:06;100390.91;;;7.03;83.15
64551;BME280;50945;44.472;-123.352;2023-04-08T06:52:32;100390.22;;;7.01;83.30
64551;BME280;50945;44.472;-123.352;2023-04-08T06:54:58;100400.25;;;7.00;83.27
64551;BME280;50945;44.472;-123.352;2023-04-08T06:57:24;100384.94;;;6.99;82.94
64551;BME280;50945;44.472;-123.352;2023-04-08T06:59:50;100389.53;;;6.99;83.66
64551;BME280;50945;44.472;-123.352;2023-04-08T07:02:17;100385.25;;;6.96;84.64
64551;BME280;50945;44.472;-123.352;2023-04-08T07:04:44;100380.00;;;6.95;83.98
64551;BME280;50945;44.472;-123.352;2023-04-08T07:07:10;100382.72;;;6.95;84.15
64551;BME280;50945;44.472;-123.352;2023-04-08T07:09:37;100380.16;;;6.93;83.96
64551;BME280;50945;44.472;-123.352;2023-04-08T07:12:04;100380.31;;;6.92;83.67
64551;BME280;50945;44.472;-123.352;2023-04-08T07:14:30;100374.88;;;6.92;83.62
64551;BME280;50945;44.472;-123.352;2023-04-08T07:16:57;100382.34;;;6.90;83.96
64551;BME280;50945;44.472;-123.352;2023-04-08T07:19:23;100374.19;;;6.90;83.66
64551;BME280;50945;44.472;-123.352;2023-04-08T07:21:49;100369.75;;;6.89;83.60
64551;BME280;50945;44.472;-123.352;2023-04-08T07:24:17;100368.91;;;6.88;84.02
64551;BME280;50945;44.472;-123.352;2023-04-08T07:26:44;100363.63;;;6.87;84.27
64551;BME280;50945;44.472;-123.352;2023-04-08T07:29:10;100362.66;;;6.88;83.92
64551;BME280;50945;44.472;-123.352;2023-04-08T07:31:36;100356.34;;;6.87;83.93
64551;BME280;50945;44.472;-123.352;2023-04-08T07:34:02;100350.91;;;6.87;84.25
64551;BME280;50945;44.472;-123.352;2023-04-08T07:36:28;100362.97;;;6.84;84.60
64551;BME280;50945;44.472;-123.352;2023-04-08T07:38:55;100357.53;;;6.84;84.71
64551;BME280;50945;44.472;-123.352;2023-04-08T07:41:21;100350.22;;;6.85;86.54
64551;BME280;50945;44.472;-123.352;2023-04-08T07:43:47;100349.38;;;6.84;85.28
64551;BME280;50945;44.472;-123.352;2023-04-08T07:46:13;100358.53;;;6.83;85.47
64551;BME280;50945;44.472;-123.352;2023-04-08T07:48:40;100355.13;;;6.81;85.10
64551;BME280;50945;44.472;-123.352;2023-04-08T07:51:07;100362.41;;;6.81;85.19
64551;BME280;50945;44.472;-123.352;2023-04-08T07:53:34;100359.03;;;6.79;85.34
64551;BME280;50945;44.472;-123.352;2023-04-08T07:56:00;100356.47;;;6.77;85.39
64551;BME280;50945;44.472;-123.352;2023-04-08T07:58:29;100363.72;;;6.77;85.52
64551;BME280;50945;44.472;-123.352;2023-04-08T08:00:59;100352.88;;;6.77;85.45
64551;BME280;50945;44.472;-123.352;2023-04-08T08:03:25;100362.88;;;6.76;85.42
64551;BME280;50945;44.472;-123.352;2023-04-08T08:05:52;100364.59;;;6.77;85.08
64551;BME280;50945;44.472;-123.352;2023-04-08T08:08:18;100360.47;;;6.73;85.27
64551;BME280;50945;44.472;-123.352;2023-04-08T08:10:46;100363.69;;;6.69;85.19
64551;BME280;50945;44.472;-123.352;2023-04-08T08:13:12;100357.03;;;6.63;85.29
64551;BME280;50945;44.472;-123.352;2023-04-08T08:15:41;100359.06;;;6.61;85.85
64551;BME280;50945;44.472;-123.352;2023-04-08T08:18:07;100364.66;;;6.59;85.72
64551;BME280;50945;44.472;-123.352;2023-04-08T08:20:34;100365.13;;;6.55;85.96
64551;BME280;50945;44.472;-123.352;2023-04-08T08:23:00;100363.75;;;6.51;87.72
64551;BME280;50945;44.472;-123.352;2023-04-08T08:28:48;100362.53;;;6.45;86.48
64551;BME280;50945;44.472;-123.352;2023-04-08T08:31:15;100356.75;;;6.48;86.21
64551;BME280;50945;44.472;-123.352;2023-04-08T08:33:41;100358.31;;;6.51;86.14
64551;BME280;50945;44.472;-123.352;2023-04-08T08:36:07;100358.16;;;6.52;85.63
64551;BME280;50945;44.472;-123.352;2023-04-08T08:38:33;100360.88;;;6.52;85.46
64551;BME280;50945;44.472;-123.352;2023-04-08T08:40:59;100361.56;;;6.54;85.40
64551;BME280;50945;44.472;-123.352;2023-04-08T08:43:27;100354.09;;;6.56;85.42
64551;BME280;50945;44.472;-123.352;2023-04-08T08:45:54;100353.94;;;6.58;85.31
64551;BME280;50945;44.472;-123.352;2023-04-08T08:48:20;100352.06;;;6.58;85.46
64551;BME280;50945;44.472;-123.352;2023-04-08T08:50:46;100353.94;;;6.58;85.33
64551;BME280;50945;44.472;-123.352;2023-04-08T08:53:13;100352.91;;;6.59;85.15
64551;BME280;50945;44.472;-123.352;2023-04-08T08:55:39;100349.22;;;6.60;85.03
64551;BME280;50945;44.472;-123.352;2023-04-08T08:58:05;100348.53;;;6.58;85.30
64551;BME280;50945;44.472;-123.352;2023-04-08T09:00:39;100355.09;;;6.55;85.43
64551;BME280;50945;44.472;-123.352;2023-04-08T09:03:21;100355.25;;;6.54;86.02
64551;BME280;50945;44.472;-123.352;2023-04-08T09:05:55;100361.03;;;6.51;85.76
64551;BME280;50945;44.472;-123.352;2023-04-08T09:08:36;100368.50;;;6.49;86.05
64551;BME280;50945;44.472;-123.352;2023-04-08T09:11:16;100364.69;;;6.41;85.88
64551;BME280;50945;44.472;-123.352;2023-04-08T09:13:44;100380.06;;;6.33;86.00
64551;BME280;50945;44.472;-123.352;2023-04-08T09:16:15;100377.28;;;6.24;86.19
64551;BME280;50945;44.472;-123.352;2023-04-08T09:18:46;100368.34;;;6.14;86.76
64551;BME280;50945;44.472;-123.352;2023-04-08T09:21:14;100364.56;;;6.07;87.24
64551;BME280;50945;44.472;-123.352;2023-04-08T09:23:46;100366.03;;;6.01;87.20
64551;BME280;50945;44.472;-123.352;2023-04-08T09:26:18;100364.66;;;5.97;87.25
64551;BME280;50945;44.472;-123.352;2023-04-08T09:28:57;100364.66;;;5.87;87.63
64551;BME280;50945;44.472;-123.352;2023-04-08T09:31:25;100353.34;;;5.74;87.77
64551;BME280;50945;44.472;-123.352;2023-04-08T09:33:57;100353.41;;;5.64;88.04
64551;BME280;50945;44.472;-123.352;2023-04-08T09:36:24;100352.03;;;5.60;88.33
64551;BME280;50945;44.472;-123.352;2023-04-08T09:38:54;100352.03;;;5.60;88.33
64551;BME280;50945;44.472;-123.352;2023-04-08T09:41:22;100358.13;;;5.62;88.14
64551;BME280;50945;44.472;-123.352;2023-04-08T09:43:55;100360.56;;;5.65;88.27
64551;BME280;50945;44.472;-123.352;2023-04-08T09:46:39;100362.94;;;5.68;88.05
64551;BME280;50945;44.472;-123.352;2023-04-08T09:55:07;100355.56;;;5.61;88.50
64551;BME280;50945;44.472;-123.352;2023-04-08T09:57:45;100349.06;;;5.53;88.20
64551;BME280;50945;44.472;-123.352;2023-04-08T10:00:17;100346.63;;;5.50;88.11
64551;BME280;50945;44.472;-123.352;2023-04-08T10:03:00;100351.22;;;5.50;88.41
64551;BME280;50945;44.472;-123.352;2023-04-08T10:05:29;100347.66;;;5.49;88.21
64551;BME280;50945;44.472;-123.352;2023-04-08T10:07:56;100334.41;;;5.46;88.07
64551;BME280;50945;44.472;-123.352;2023-04-08T10:10:25;100330.88;;;5.36;87.54
64551;BME280;50945;44.472;-123.352;2023-04-08T10:12:52;100333.25;;;5.21;88.44
64551;BME280;50945;44.472;-123.352;2023-04-08T10:15:27;100343.44;;;5.09;88.87
64551;BME280;50945;44.472;-123.352;2023-04-08T10:20:48;100347.38;;;4.87;90.26
64551;BME280;50945;44.472;-123.352;2023-04-08T10:23:16;100347.97;;;4.81;90.73
64551;BME280;50945;44.472;-123.352;2023-04-08T10:25:49;100350.81;;;4.80;91.02
64551;BME280;50945;44.472;-123.352;2023-04-08T10:30:46;100352.25;;;4.74;90.39
64551;BME280;50945;44.472;-123.352;2023-04-08T10:33:32;100357.13;;;4.70;91.05
64551;BME280;50945;44.472;-123.352;2023-04-08T10:36:11;100361.97;;;4.67;91.24
64551;BME280;50945;44.472;-123.352;2023-04-08T10:38:40;100344.19;;;4.64;91.62
64551;BME280;50945;44.472;-123.352;2023-04-08T10:41:12;100345.03;;;4.65;91.81
64551;BME280;50945;44.472;-123.352;2023-04-08T10:43:38;100344.19;;;4.64;91.70
64551;BME280;50945;44.472;-123.352;2023-04-08T10:46:04;100347.59;;;4.66;91.38
64551;BME280;50945;44.472;-123.352;2023-04-08T10:48:31;100349.47;;;4.66;91.89
64551;BME280;50945;44.472;-123.352;2023-04-08T10:51:01;100348.59;;;4.65;91.59
64551;BME280;50945;44.472;-123.352;2023-04-08T10:53:34;100362.28;;;4.64;91.38
64551;BME280;50945;44.472;-123.352;2023-04-08T10:56:08;100361.56;;;4.62;91.30
64551;BME280;50945;44.472;-123.352;2023-04-08T10:58:57;100357.59;;;4.56;91.57
64551;BME280;50945;44.472;-123.352;2023-04-08T11:01:24;100363.16;;;4.54;91.04
64551;BME280;50945;44.472;-123.352;2023-04-08T11:03:51;100353.63;;;4.50;90.93
64551;BME280;50945;44.472;-123.352;2023-04-08T11:06:17;100358.47;;;4.47;91.69
64551;BME280;50945;44.472;-123.352;2023-04-08T11:08:44;100351.34;;;4.46;92.17
64551;BME280;50945;44.472;-123.352;2023-04-08T11:11:11;100354.91;;;4.46;92.45
64551;BME280;50945;44.472;-123.352;2023-04-08T11:13:39;100356.47;;;4.49;92.72
64551;BME280;50945;44.472;-123.352;2023-04-08T11:16:07;100359.16;;;4.49;92.41
64551;BME280;50945;44.472;-123.352;2023-04-08T11:18:35;100360.88;;;4.50;92.36
64551;BME280;50945;44.472;-123.352;2023-04-08T11:21:03;100353.91;;;4.47;92.08
64551;BME280;50945;44.472;-123.352;2023-04-08T11:23:33;100353.75;;;4.49;92.55
64551;BME280;50945;44.472;-123.352;2023-04-08T11:25:59;100357.47;;;4.48;92.10
64551;BME280;50945;44.472;-123.352;2023-04-08T11:28:25;100356.59;;;4.47;92.27
64551;BME280;50945;44.472;-123.352;2023-04-08T11:30:53;100351.91;;;4.49;92.80
64551;BME280;50945;44.472;-123.352;2023-04-08T11:33:20;100360.88;;;4.50;92.73
64551;BME280;50945;44.472;-123.352;2023-04-08T11:35:50;100360.88;;;4.50;92.52
64551;BME280;50945;44.472;-123.352;2023-04-08T11:38:16;100370.69;;;4.51;92.87
64551;BME280;50945;44.472;-123.352;2023-04-08T11:40:57;100370.56;;;4.52;92.87
64551;BME280;50945;44.472;-123.352;2023-04-08T11:43:23;100369.72;;;4.52;92.47
64551;BME280;50945;44.472;-123.352;2023-04-08T11:45:50;100369.00;;;4.50;95.25
64551;BME280;50945;44.472;-123.352;2023-04-08T11:48:16;100373.72;;;4.48;92.95
64551;BME280;50945;44.472;-123.352;2023-04-08T11:50:43;100382.97;;;4.45;93.17
64551;BME280;50945;44.472;-123.352;2023-04-08T11:53:20;100377.56;;;4.45;93.23
64551;BME280;50945;44.472;-123.352;2023-04-08T11:55:47;100374.00;;;4.45;92.99
64551;BME280;50945;44.472;-123.352;2023-04-08T11:58:14;100366.72;;;4.45;93.25
64551;BME280;50945;44.472;-123.352;2023-04-08T12:00:40;100361.75;;;4.50;93.05
64551;BME280;50945;44.472;-123.352;2023-04-08T12:03:07;100357.59;;;4.56;93.15
64551;BME280;50945;44.472;-123.352;2023-04-08T12:05:33;100361.28;;;4.65;93.19
64551;BME280;50945;44.472;-123.352;2023-04-08T12:08:00;100351.84;;;4.69;93.02
64551;BME280;50945;44.472;-123.352;2023-04-08T12:10:27;100354.13;;;4.73;93.20
64551;BME280;50945;44.472;-123.352;2023-04-08T12:12:53;100339.59;;;4.74;93.36
64551;BME280;50945;44.472;-123.352;2023-04-08T12:15:19;100338.59;;;4.75;93.37
64551;BME280;50945;44.472;-123.352;2023-04-08T12:17:46;100340.84;;;4.80;93.19
64551;BME280;50945;44.472;-123.352;2023-04-08T12:20:12;100342.53;;;4.81;93.29
64551;BME280;50945;44.472;-123.352;2023-04-08T12:22:39;100329.88;;;4.82;93.17
64551;BME280;50945;44.472;-123.352;2023-04-08T12:25:05;100334.13;;;4.84;93.37
64551;BME280;50945;44.472;-123.352;2023-04-08T12:27:32;100340.41;;;4.85;93.14
64551;BME280;50945;44.472;-123.352;2023-04-08T12:29:59;100338.72;;;4.84;93.08
64551;BME280;50945;44.472;-123.352;2023-04-08T12:32:25;100334.00;;;4.86;93.69
64551;BME280;50945;44.472;-123.352;2023-04-08T12:34:52;100331.28;;;4.86;92.95
64551;BME280;50945;44.472;-123.352;2023-04-08T12:37:18;100336.00;;;4.84;92.69
64551;BME280;50945;44.472;-123.352;2023-04-08T12:39:45;100331.16;;;4.78;95.82
64551;BME280;50945;44.472;-123.352;2023-04-08T12:42:12;100332.31;;;4.75;93.68
64551;BME280;50945;44.472;-123.352;2023-04-08T12:44:39;100335.16;;;4.73;93.69
64551;BME280;50945;44.472;-123.352;2023-04-08T12:47:05;100326.91;;;4.75;93.65
64551;BME280;50945;44.472;-123.352;2023-04-08T12:49:31;100325.19;;;4.74;93.75
64551;BME280;50945;44.472;-123.352;2023-04-08T12:51:57;100332.47;;;4.73;93.55
64551;BME280;50945;44.472;-123.352;2023-04-08T12:54:23;100330.91;;;4.71;93.77
64551;BME280;50945;44.472;-123.352;2023-04-08T12:56:50;100332.59;;;4.72;93.54